Occitan Barsac — C6AR2 — position and weather

sailwx.info

Track history (hours):
 
Tides and Currents Weather Stations Pressure Air Temp Water Temp Dewpoint Dewpoint Depression Visibility Wind Speed Wind Dir Waves Ship Positions

Occitan Barsac

Last reported at 2017-Nov-11 12:27 UTC. Time now 2017-Nov-21 17:23 UTC.
Position N 26°29' W 014°46'.
Warning: this ship's position is 10 days out of date.

Length 165 m; draft 9.4 m.

Type: Cargo ship. MMSI: 311000126.

Date/timePositionNaut miles runAvg speedWind from/ knotsBaromVisibWave heightAir tempDewpointWater temp
2017-Nov-11 12:27N 26°29' W 014°46'2911.6
2017-Nov-11 09:56N 26°52' W 014°27'511.7
2017-Nov-11 09:30N 26°57' W 014°24'611.7
2017-Nov-11 09:00N 27°02' W 014°21'611.9
2017-Nov-11 08:31N 27°07' W 014°17'611.9
2017-Nov-11 08:00N 27°11' W 014°13'611.6
2017-Nov-11 07:30N 27°16' W 014°09'611.6
2017-Nov-11 07:00N 27°21' W 014°06'611.7
2017-Nov-11 06:30N 27°26' W 014°02'611.7
2017-Nov-11 05:58N 27°31' W 013°59'612.2
2017-Nov-11 05:30N 27°36' W 013°55'612.4
2017-Nov-11 05:01N 27°40' W 013°51'612.2
2017-Nov-11 04:31N 27°45' W 013°47'612.1
2017-Nov-11 04:00N 27°51' W 013°43'611.9
2017-Nov-11 03:30N 27°55' W 013°39'611.7
2017-Nov-11 03:00N 28°00' W 013°35'711.4
2017-Nov-11 02:26N 28°05' W 013°31'511.4
2017-Nov-11 02:00N 28°09' W 013°28'611.4
2017-Nov-11 01:28N 28°15' W 013°24'611.4
2017-Nov-11 00:58N 28°19' W 013°20'611.4
2017-Nov-11 00:28N 28°24' W 013°16'511.5
2017-Nov-11 00:00N 28°28' W 013°13'711.9
2017-Nov-10 23:24N 28°34' W 013°08'612.1
2017-Nov-10 22:55N 28°39' W 013°05'512.0
2017-Nov-10 22:27N 28°44' W 013°01'511.8
2017-Nov-10 22:00N 28°48' W 012°58'611.3
2017-Nov-10 21:29N 28°53' W 012°54'510.9
2017-Nov-10 21:00N 28°57' W 012°51'611.5
2017-Nov-10 20:31N 29°02' W 012°47'611.5
2017-Nov-10 19:59N 29°07' W 012°43'811.3
2017-Nov-10 19:18N 29°13' W 012°38'411.2
2017-Nov-10 18:56N 29°17' W 012°36'10711.5
2017-Nov-10 09:36N 30°45' W 011°25'211.5
2017-Nov-10 09:28N 30°47' W 011°24'511.6
2017-Nov-10 08:59N 30°51' W 011°21'611.9
2017-Nov-10 08:30N 30°56' W 011°17'611.9
2017-Nov-10 08:00N 31°01' W 011°13'611.8
2017-Nov-10 07:30N 31°06' W 011°09'812.0
2017-Nov-10 06:52N 31°12' W 011°04'411.7
2017-Nov-10 06:30N 31°16' W 011°02'1911.4
2017-Nov-10 04:50N 31°32' W 010°49'511.8
2017-Nov-10 04:26N 31°35' W 010°46'911.6
2017-Nov-10 03:39N 31°43' W 010°40'1011.9
2017-Nov-10 02:51N 31°51' W 010°34'  
2017-Nov-04 09:16N 36°43' E 013°25'1712.1
2017-Nov-04 07:54N 36°37' E 013°44'511.9
2017-Nov-04 07:30N 36°36' E 013°49'611.9
2017-Nov-04 06:59N 36°33' E 013°57'611.8
2017-Nov-04 06:29N 36°31' E 014°03'611.8
2017-Nov-04 06:00N 36°29' E 014°10'611.8
2017-Nov-04 05:30N 36°27' E 014°17'611.7
2017-Nov-04 05:00N 36°24' E 014°24'611.8
2017-Nov-04 04:30N 36°22' E 014°30'612.3
2017-Nov-04 04:00N 36°20' E 014°38'612.4
2017-Nov-04 03:30N 36°18' E 014°45'  
Track history (hours):
 
Tides and Currents Weather Stations Pressure Air Temp Water Temp Dewpoint Dewpoint Depression Visibility Wind Speed Wind Dir Waves Ship Positions

Occitan Barsac

Last reported at 2017-Nov-11 12:27 UTC. Time now 2017-Nov-21 17:23 UTC.
Position N 26°29' W 014°46'.
Warning: this ship's position is 10 days out of date.

Length 165 m; draft 9.4 m.

Type: Cargo ship. MMSI: 311000126.

Date/timePositionNaut miles runAvg speedWind from/ knotsBaromVisibWave heightAir tempDewpointWater temp
2017-Nov-11 12:27N 26°29' W 014°46'2911.6
2017-Nov-11 09:56N 26°52' W 014°27'511.7
2017-Nov-11 09:30N 26°57' W 014°24'611.7
2017-Nov-11 09:00N 27°02' W 014°21'611.9
2017-Nov-11 08:31N 27°07' W 014°17'611.9
2017-Nov-11 08:00N 27°11' W 014°13'611.6
2017-Nov-11 07:30N 27°16' W 014°09'611.6
2017-Nov-11 07:00N 27°21' W 014°06'611.7
2017-Nov-11 06:30N 27°26' W 014°02'611.7
2017-Nov-11 05:58N 27°31' W 013°59'612.2
2017-Nov-11 05:30N 27°36' W 013°55'612.4
2017-Nov-11 05:01N 27°40' W 013°51'612.2
2017-Nov-11 04:31N 27°45' W 013°47'612.1
2017-Nov-11 04:00N 27°51' W 013°43'611.9
2017-Nov-11 03:30N 27°55' W 013°39'611.7
2017-Nov-11 03:00N 28°00' W 013°35'711.4
2017-Nov-11 02:26N 28°05' W 013°31'511.4
2017-Nov-11 02:00N 28°09' W 013°28'611.4
2017-Nov-11 01:28N 28°15' W 013°24'611.4
2017-Nov-11 00:58N 28°19' W 013°20'611.4
2017-Nov-11 00:28N 28°24' W 013°16'511.5
2017-Nov-11 00:00N 28°28' W 013°13'711.9
2017-Nov-10 23:24N 28°34' W 013°08'612.1
2017-Nov-10 22:55N 28°39' W 013°05'512.0
2017-Nov-10 22:27N 28°44' W 013°01'511.8
2017-Nov-10 22:00N 28°48' W 012°58'611.3
2017-Nov-10 21:29N 28°53' W 012°54'510.9
2017-Nov-10 21:00N 28°57' W 012°51'611.5
2017-Nov-10 20:31N 29°02' W 012°47'611.5
2017-Nov-10 19:59N 29°07' W 012°43'811.3
2017-Nov-10 19:18N 29°13' W 012°38'411.2
2017-Nov-10 18:56N 29°17' W 012°36'10711.5
2017-Nov-10 09:36N 30°45' W 011°25'211.5
2017-Nov-10 09:28N 30°47' W 011°24'511.6
2017-Nov-10 08:59N 30°51' W 011°21'611.9
2017-Nov-10 08:30N 30°56' W 011°17'611.9
2017-Nov-10 08:00N 31°01' W 011°13'611.8
2017-Nov-10 07:30N 31°06' W 011°09'812.0
2017-Nov-10 06:52N 31°12' W 011°04'411.7
2017-Nov-10 06:30N 31°16' W 011°02'1911.4
2017-Nov-10 04:50N 31°32' W 010°49'511.8
2017-Nov-10 04:26N 31°35' W 010°46'911.6
2017-Nov-10 03:39N 31°43' W 010°40'1011.9
2017-Nov-10 02:51N 31°51' W 010°34'  
2017-Nov-04 09:16N 36°43' E 013°25'1712.1
2017-Nov-04 07:54N 36°37' E 013°44'511.9
2017-Nov-04 07:30N 36°36' E 013°49'611.9
2017-Nov-04 06:59N 36°33' E 013°57'611.8
2017-Nov-04 06:29N 36°31' E 014°03'611.8
2017-Nov-04 06:00N 36°29' E 014°10'611.8
2017-Nov-04 05:30N 36°27' E 014°17'611.7
2017-Nov-04 05:00N 36°24' E 014°24'611.8
2017-Nov-04 04:30N 36°22' E 014°30'612.3
2017-Nov-04 04:00N 36°20' E 014°38'612.4
2017-Nov-04 03:30N 36°18' E 014°45'  

Dump ship's entire track history